Time;durP1;ratioP1;P1;durP2;ratioP2;P2;SDS_P1;SDS_P2;PMS_P1;PMS_P2;Temp;Humidity;BMP_temperature;BMP_pressure;BME280_temperature;BME280_humidity;BME280_pressure;Samples;Min_cycle;Max_cycle;Signal;HPM_P1;HPM_P2
2022/08/13 00:00:07;;;;;;;;;;;10.70;99.90;;;;;;5126433;27;20300;-55
2022/08/13 00:02:51;;;;;;;;;;;10.70;99.90;;;;;;5127273;27;19918;-54
2022/08/13 00:05:32;;;;;;;;;;;10.70;99.90;;;;;;5106156;27;20427;-55
2022/08/13 00:08:13;;;;;;;;;;;10.70;99.90;;;;;;5126889;27;19911;-56
2022/08/13 00:10:53;;;;;;;;;;;10.70;99.90;;;;;;5116452;27;19919;-56
2022/08/13 00:13:32;;;;;;;;;;;10.70;99.90;;;;;;5148244;27;19916;-56
2022/08/13 00:16:12;;;;;;;;;;;10.60;99.90;;;;;;5126869;27;20261;-55
2022/08/13 00:18:52;;;;;;;;;;;10.50;99.90;;;;;;5114342;27;19912;-56
2022/08/13 00:21:32;;;;;;;;;;;10.40;99.90;;;;;;5126820;27;19919;-56
2022/08/13 00:24:12;;;;;;;;;;;10.40;99.90;;;;;;5127155;27;19919;-54
2022/08/13 00:26:51;;;;;;;;;;;10.40;99.90;;;;;;5127105;27;19912;-55
2022/08/13 00:29:31;;;;;;;;;;;10.30;99.90;;;;;;5126466;27;19916;-55
2022/08/13 00:32:11;;;;;;;;;;;10.20;99.90;;;;;;5127350;27;19912;-55
2022/08/13 00:34:51;;;;;;;;;;;10.10;99.90;;;;;;5106574;27;19926;-55
2022/08/13 00:37:31;;;;;;;;;;;10.20;99.90;;;;;;5103520;28;19935;-54
2022/08/13 00:40:12;;;;;;;;;;;10.20;99.90;;;;;;5125978;27;19915;-55
2022/08/13 00:42:52;;;;;;;;;;;10.10;99.90;;;;;;5126950;27;19922;-56
2022/08/13 00:45:32;;;;;;;;;;;10.10;99.90;;;;;;5126500;27;19912;-55
2022/08/13 00:51:14;;;;;;;;;;;10.20;99.90;;;;;;5114283;27;20404;-55
2022/08/13 00:53:55;;;;;;;;;;;10.30;99.90;;;;;;5126740;27;19926;-55
2022/08/13 00:56:35;;;;;;;;;;;10.30;99.90;;;;;;5126538;27;19918;-55
2022/08/13 00:59:15;;;;;;;;;;;10.20;99.90;;;;;;5126356;27;20332;-55
2022/08/13 01:01:55;;;;;;;;;;;10.20;99.90;;;;;;5127123;27;20379;-55
2022/08/13 01:04:35;;;;;;;;;;;10.20;99.90;;;;;;5126792;27;19912;-56
2022/08/13 01:07:18;;;;;;;;;;;10.20;99.90;;;;;;5126893;27;19911;-54
2022/08/13 01:09:57;;;;;;;;;;;10.20;99.90;;;;;;5124055;27;19912;-56
2022/08/13 01:12:38;;;;;;;;;;;10.10;99.90;;;;;;5116732;27;19919;-54
2022/08/13 01:15:23;;;;;;;;;;;10.00;99.90;;;;;;5121406;27;19919;-55
2022/08/13 01:18:04;;;;;;;;;;;10.00;99.90;;;;;;5126038;27;19911;-55
2022/08/13 01:20:46;;;;;;;;;;;10.00;99.90;;;;;;5117113;27;19919;-55
2022/08/13 01:23:28;;;;;;;;;;;10.10;99.90;;;;;;5126904;27;19922;-56
2022/08/13 01:26:09;;;;;;;;;;;10.00;99.90;;;;;;5126707;27;19911;-56
2022/08/13 01:28:51;;;;;;;;;;;10.00;99.90;;;;;;5129810;27;19918;-55
2022/08/13 01:31:31;;;;;;;;;;;10.00;99.90;;;;;;5126679;27;20405;-55
2022/08/13 01:34:12;;;;;;;;;;;10.00;99.90;;;;;;5126678;27;19912;-56
2022/08/13 01:36:54;;;;;;;;;;;10.00;99.90;;;;;;5126852;27;19915;-55
2022/08/13 01:39:35;;;;;;;;;;;9.90;99.90;;;;;;5126401;27;19915;-56
2022/08/13 01:42:20;;;;;;;;;;;9.90;99.90;;;;;;5126656;27;20391;-55
2022/08/13 01:45:01;;;;;;;;;;;9.80;99.90;;;;;;5127452;27;20031;-55
2022/08/13 01:50:40;;;;;;;;;;;9.70;99.90;;;;;;5126001;27;20164;-56
2022/08/13 01:53:19;;;;;;;;;;;9.70;99.90;;;;;;5126741;27;19922;-55
2022/08/13 01:56:00;;;;;;;;;;;9.60;99.90;;;;;;5134207;27;20278;-56
2022/08/13 01:58:41;;;;;;;;;;;9.50;99.90;;;;;;5126658;27;19915;-55
2022/08/13 02:01:24;;;;;;;;;;;9.50;99.90;;;;;;5112436;27;19916;-55
2022/08/13 02:04:06;;;;;;;;;;;9.50;99.90;;;;;;5127257;27;20270;-56
2022/08/13 02:06:48;;;;;;;;;;;9.50;99.90;;;;;;5106260;27;19912;-55
2022/08/13 02:09:28;;;;;;;;;;;9.50;99.90;;;;;;5126329;27;19915;-55
2022/08/13 02:12:10;;;;;;;;;;;9.60;99.90;;;;;;5112150;27;19926;-56
2022/08/13 02:14:51;;;;;;;;;;;9.50;99.90;;;;;;5126810;27;19918;-56
2022/08/13 02:17:33;;;;;;;;;;;9.50;99.90;;;;;;5127083;27;19911;-55
2022/08/13 02:20:17;;;;;;;;;;;9.50;99.90;;;;;;5110428;27;19978;-55
2022/08/13 02:22:57;;;;;;;;;;;9.40;99.90;;;;;;5126753;27;19930;-56
2022/08/13 02:25:37;;;;;;;;;;;9.40;99.90;;;;;;5126464;27;19912;-55
2022/08/13 02:28:18;;;;;;;;;;;9.30;99.90;;;;;;5127283;27;19942;-56
2022/08/13 02:30:58;;;;;;;;;;;9.20;99.90;;;;;;5115755;27;19912;-55
2022/08/13 02:33:40;;;;;;;;;;;9.20;99.90;;;;;;5126417;27;19916;-55
2022/08/13 02:36:22;;;;;;;;;;;9.20;99.90;;;;;;5126256;27;19912;-56
2022/08/13 02:39:04;;;;;;;;;;;9.20;99.90;;;;;;5126516;27;20330;-55
2022/08/13 02:41:47;;;;;;;;;;;9.30;99.90;;;;;;5108883;27;19920;-56
2022/08/13 02:44:27;;;;;;;;;;;9.30;99.90;;;;;;5126823;27;19916;-56
2022/08/13 02:47:07;;;;;;;;;;;9.30;99.90;;;;;;5106573;27;19953;-56
2022/08/13 02:49:51;;;;;;;;;;;9.20;99.90;;;;;;5126280;27;19941;-56
2022/08/13 02:52:33;;;;;;;;;;;9.20;99.90;;;;;;5126773;27;20312;-55
2022/08/13 02:55:14;;;;;;;;;;;9.20;99.90;;;;;;5127211;27;20262;-54
2022/08/13 02:57:54;;;;;;;;;;;9.10;99.90;;;;;;5143203;27;20402;-56
2022/08/13 03:00:34;;;;;;;;;;;9.10;99.90;;;;;;5126441;27;19918;-57
2022/08/13 03:03:13;;;;;;;;;;;9.10;99.90;;;;;;5126937;27;19916;-56
2022/08/13 03:05:54;;;;;;;;;;;9.10;99.90;;;;;;5126918;27;19916;-55
2022/08/13 03:08:33;;;;;;;;;;;9.00;99.90;;;;;;5126784;27;19915;-55
2022/08/13 03:11:13;;;;;;;;;;;9.10;99.90;;;;;;5126287;27;20300;-55
2022/08/13 03:13:56;;;;;;;;;;;9.10;99.90;;;;;;5126965;27;20365;-56
2022/08/13 03:16:39;;;;;;;;;;;9.00;99.90;;;;;;5124506;27;20274;-56
2022/08/13 03:19:20;;;;;;;;;;;8.90;99.90;;;;;;5126896;27;20315;-55
2022/08/13 03:22:01;;;;;;;;;;;8.90;99.90;;;;;;5126524;27;19930;-56
2022/08/13 03:24:40;;;;;;;;;;;8.80;99.90;;;;;;5125759;27;19912;-56
2022/08/13 03:27:20;;;;;;;;;;;8.90;99.90;;;;;;5127662;27;19916;-55
2022/08/13 03:30:00;;;;;;;;;;;8.90;99.90;;;;;;5123757;27;19911;-56
2022/08/13 03:32:40;;;;;;;;;;;8.80;99.90;;;;;;5126684;27;19912;-56
2022/08/13 03:35:22;;;;;;;;;;;8.80;99.90;;;;;;5139907;27;19915;-56
2022/08/13 03:38:03;;;;;;;;;;;8.80;99.90;;;;;;5120002;27;19927;-55
2022/08/13 03:41:02;;;;;;;;;;;8.80;99.90;;;;;;5126816;27;20324;-56
2022/08/13 03:43:44;;;;;;;;;;;8.70;99.90;;;;;;5126613;27;19918;-56
2022/08/13 03:46:25;;;;;;;;;;;8.70;99.90;;;;;;5126710;27;19918;-56
2022/08/13 03:49:06;;;;;;;;;;;8.60;99.90;;;;;;5126414;27;19918;-55
2022/08/13 03:51:45;;;;;;;;;;;8.60;99.90;;;;;;5108815;27;20308;-56
2022/08/13 03:54:25;;;;;;;;;;;8.60;99.90;;;;;;5126508;27;20381;-56
2022/08/13 03:57:05;;;;;;;;;;;8.60;99.90;;;;;;5126410;27;19935;-56
2022/08/13 03:59:46;;;;;;;;;;;8.60;99.90;;;;;;5125630;27;19916;-56
2022/08/13 04:02:28;;;;;;;;;;;8.60;99.90;;;;;;5114410;27;20302;-56
2022/08/13 04:05:11;;;;;;;;;;;8.50;99.90;;;;;;5126504;27;19912;-56
2022/08/13 04:07:52;;;;;;;;;;;8.50;99.90;;;;;;5126802;27;19926;-56
2022/08/13 04:10:33;;;;;;;;;;;8.50;99.90;;;;;;5118933;27;20399;-56
2022/08/13 04:13:16;;;;;;;;;;;8.60;99.90;;;;;;5126548;27;19915;-56
2022/08/13 04:15:55;;;;;;;;;;;8.60;99.90;;;;;;5127092;27;19912;-55
2022/08/13 04:18:36;;;;;;;;;;;8.70;99.90;;;;;;5126486;27;20177;-56
2022/08/13 04:21:17;;;;;;;;;;;8.70;99.90;;;;;;5113466;27;19912;-56
2022/08/13 04:23:58;;;;;;;;;;;8.80;99.90;;;;;;5126575;27;19918;-56
2022/08/13 04:26:38;;;;;;;;;;;8.90;99.90;;;;;;5126634;27;19953;-56
2022/08/13 04:29:18;;;;;;;;;;;8.90;99.90;;;;;;5126407;27;19934;-56
2022/08/13 04:31:59;;;;;;;;;;;9.00;99.90;;;;;;5126638;27;20331;-56
2022/08/13 04:34:39;;;;;;;;;;;9.10;99.90;;;;;;5126891;27;19920;-56
2022/08/13 04:37:19;;;;;;;;;;;9.10;99.90;;;;;;5113824;27;19918;-56
2022/08/13 04:39:58;;;;;;;;;;;9.10;99.90;;;;;;5123522;27;20296;-56
2022/08/13 04:42:45;;;;;;;;;;;9.20;99.90;;;;;;5124376;27;19912;-56
2022/08/13 04:45:27;;;;;;;;;;;9.20;99.90;;;;;;5126075;27;19922;-56
2022/08/13 04:48:09;;;;;;;;;;;9.20;99.90;;;;;;5126930;27;19943;-56
2022/08/13 04:50:49;;;;;;;;;;;9.20;99.90;;;;;;5116643;27;19918;-56
2022/08/13 04:53:30;;;;;;;;;;;9.30;99.90;;;;;;5126493;27;19918;-56
2022/08/13 04:56:10;;;;;;;;;;;9.30;99.90;;;;;;5126778;27;19912;-56
2022/08/13 04:58:50;;;;;;;;;;;9.40;99.90;;;;;;5126168;27;19922;-55
2022/08/13 05:01:30;;;;;;;;;;;9.50;99.90;;;;;;5111112;27;19912;-56
2022/08/13 05:04:10;;;;;;;;;;;9.60;99.90;;;;;;5126808;27;19949;-56
2022/08/13 05:06:51;;;;;;;;;;;9.60;99.90;;;;;;5126864;27;19916;-56
2022/08/13 05:09:31;;;;;;;;;;;9.70;99.90;;;;;;5126352;27;19912;-56
2022/08/13 05:12:11;;;;;;;;;;;9.80;99.90;;;;;;5126758;27;19925;-56
2022/08/13 05:14:51;;;;;;;;;;;9.90;99.90;;;;;;5138870;27;19918;-56
2022/08/13 05:17:32;;;;;;;;;;;10.00;99.90;;;;;;5126546;27;20096;-56
2022/08/13 05:20:15;;;;;;;;;;;10.10;99.90;;;;;;5122086;27;19969;-56
2022/08/13 05:22:56;;;;;;;;;;;10.20;99.90;;;;;;5139086;27;19911;-55
2022/08/13 05:25:36;;;;;;;;;;;10.40;99.90;;;;;;5126496;27;20296;-56
2022/08/13 05:28:17;;;;;;;;;;;10.50;99.90;;;;;;5114604;27;19912;-55
2022/08/13 05:30:58;;;;;;;;;;;10.70;99.90;;;;;;5126320;27;19919;-55
2022/08/13 05:33:37;;;;;;;;;;;10.80;99.90;;;;;;5126322;27;20304;-56
2022/08/13 05:36:17;;;;;;;;;;;11.00;99.90;;;;;;5126705;27;20443;-56
2022/08/13 05:38:58;;;;;;;;;;;11.30;99.90;;;;;;5126563;27;19911;-56
2022/08/13 05:41:39;;;;;;;;;;;11.70;99.90;;;;;;5109846;27;19912;-56
2022/08/13 05:44:22;;;;;;;;;;;12.00;99.90;;;;;;5126922;27;19925;-55
2022/08/13 05:47:01;;;;;;;;;;;12.40;99.90;;;;;;5126515;27;20284;-56
2022/08/13 05:49:41;;;;;;;;;;;12.90;99.90;;;;;;5120208;27;20377;-56
2022/08/13 05:52:23;;;;;;;;;;;13.40;99.90;;;;;;5121110;27;19912;-56
2022/08/13 05:55:03;;;;;;;;;;;13.80;99.90;;;;;;5121315;27;19973;-56
2022/08/13 05:57:44;;;;;;;;;;;14.20;99.90;;;;;;5125519;27;19912;-56
2022/08/13 06:03:25;;;;;;;;;;;14.80;99.90;;;;;;5126679;27;20266;-56
2022/08/13 06:06:09;;;;;;;;;;;15.00;99.90;;;;;;5126941;27;19919;-56
2022/08/13 06:08:49;;;;;;;;;;;15.20;99.90;;;;;;5125991;27;20270;-56
2022/08/13 06:11:30;;;;;;;;;;;15.40;99.90;;;;;;5126556;27;19922;-55
2022/08/13 06:14:17;;;;;;;;;;;15.50;99.90;;;;;;5126922;27;19911;-56
2022/08/13 06:16:58;;;;;;;;;;;15.80;99.90;;;;;;5126787;27;19934;-55
2022/08/13 06:19:38;;;;;;;;;;;16.00;99.90;;;;;;5126486;27;19915;-55
2022/08/13 06:22:21;;;;;;;;;;;16.10;99.90;;;;;;5127025;27;19918;-56
2022/08/13 06:25:06;;;;;;;;;;;16.20;99.90;;;;;;5127837;27;19918;-55
2022/08/13 06:27:47;;;;;;;;;;;16.40;99.90;;;;;;5126941;27;20323;-56
2022/08/13 06:30:30;;;;;;;;;;;16.60;99.90;;;;;;5120254;27;19912;-56
2022/08/13 06:33:10;;;;;;;;;;;16.80;99.90;;;;;;5127060;27;19915;-56
2022/08/13 06:35:50;;;;;;;;;;;17.00;99.90;;;;;;5126788;27;19923;-55
2022/08/13 06:38:31;;;;;;;;;;;17.20;99.90;;;;;;5106036;27;19912;-56
2022/08/13 06:41:13;;;;;;;;;;;17.60;99.90;;;;;;5126424;27;19912;-56
2022/08/13 06:43:56;;;;;;;;;;;18.00;99.90;;;;;;5127216;27;19916;-56
2022/08/13 06:46:38;;;;;;;;;;;18.20;99.90;;;;;;5106311;27;19916;-55
2022/08/13 06:49:18;;;;;;;;;;;18.30;99.90;;;;;;5126647;27;19912;-55
2022/08/13 06:51:58;;;;;;;;;;;18.50;99.90;;;;;;5126784;27;19912;-55
2022/08/13 06:54:38;;;;;;;;;;;18.80;99.90;;;;;;5126297;27;19912;-55
2022/08/13 06:57:19;;;;;;;;;;;18.90;99.90;;;;;;5126730;27;20291;-55
2022/08/13 06:59:59;;;;;;;;;;;18.70;99.90;;;;;;5126378;27;19926;-55
2022/08/13 07:02:42;;;;;;;;;;;18.40;99.90;;;;;;5126909;27;19953;-56
2022/08/13 07:05:33;;;;;;;;;;;18.20;99.90;;;;;;5126760;27;19918;-55
2022/08/13 07:08:13;;;;;;;;;;;18.20;99.90;;;;;;5126714;27;19912;-55
2022/08/13 07:13:49;;;;;;;;;;;18.40;99.90;;;;;;5126539;27;20380;-55
2022/08/13 07:16:30;;;;;;;;;;;18.60;99.90;;;;;;5126550;27;19918;-55
2022/08/13 07:19:11;;;;;;;;;;;19.00;99.90;;;;;;5126536;27;19912;-55
2022/08/13 07:21:52;;;;;;;;;;;19.40;99.90;;;;;;5126559;27;19916;-56
2022/08/13 07:24:33;;;;;;;;;;;19.80;99.90;;;;;;5126650;27;19926;-55
2022/08/13 07:27:13;;;;;;;;;;;20.20;99.90;;;;;;5127026;27;19911;-56
2022/08/13 07:30:05;;;;;;;;;;;20.70;99.90;;;;;;5126360;27;19918;-56
2022/08/13 07:32:46;;;;;;;;;;;21.00;99.90;;;;;;5126917;27;19926;-56
2022/08/13 07:35:28;;;;;;;;;;;21.20;99.90;;;;;;5126785;27;19926;-56
2022/08/13 07:38:08;;;;;;;;;;;21.40;99.90;;;;;;5127063;27;20129;-55
2022/08/13 07:40:50;;;;;;;;;;;21.60;99.90;;;;;;5113427;27;19916;-55
2022/08/13 07:43:32;;;;;;;;;;;21.80;99.90;;;;;;5125970;27;19912;-55
2022/08/13 07:46:15;;;;;;;;;;;21.80;99.90;;;;;;5126254;27;20284;-56
2022/08/13 07:48:56;;;;;;;;;;;21.70;99.90;;;;;;5126625;27;19934;-56
2022/08/13 07:51:37;;;;;;;;;;;21.70;99.90;;;;;;5110734;27;20408;-55
2022/08/13 07:54:17;;;;;;;;;;;21.60;99.90;;;;;;5126896;27;19918;-56
2022/08/13 07:56:58;;;;;;;;;;;21.70;99.90;;;;;;5126900;27;19939;-55
2022/08/13 07:59:38;;;;;;;;;;;21.70;99.90;;;;;;5106163;27;19912;-55
2022/08/13 08:02:19;;;;;;;;;;;21.90;99.90;;;;;;5127563;27;19912;-55
2022/08/13 08:05:00;;;;;;;;;;;22.20;99.90;;;;;;5085784;28;19923;-55
2022/08/13 08:07:41;;;;;;;;;;;22.50;99.90;;;;;;5126617;27;19912;-56
2022/08/13 08:10:21;;;;;;;;;;;22.80;98.60;;;;;;5100353;27;19912;-55
2022/08/13 08:13:01;;;;;;;;;;;22.90;95.30;;;;;;5126718;27;20375;-55
2022/08/13 08:15:42;;;;;;;;;;;23.30;92.40;;;;;;5126920;27;19916;-55
2022/08/13 08:18:22;;;;;;;;;;;23.60;88.00;;;;;;5106336;27;20324;-55
2022/08/13 08:21:09;;;;;;;;;;;23.90;83.90;;;;;;5126577;27;20311;-55
2022/08/13 08:23:50;;;;;;;;;;;24.20;78.30;;;;;;5147647;27;20287;-53
2022/08/13 08:26:30;;;;;;;;;;;24.30;74.20;;;;;;5126829;27;20395;-56
2022/08/13 08:29:11;;;;;;;;;;;24.40;71.60;;;;;;5126806;27;19911;-54
2022/08/13 08:31:51;;;;;;;;;;;24.40;70.20;;;;;;5147634;27;20325;-55
2022/08/13 08:34:30;;;;;;;;;;;24.40;69.30;;;;;;5126777;27;19916;-55
2022/08/13 08:42:35;;;;;;;;;;;24.30;71.00;;;;;;5126875;27;20401;-56
2022/08/13 08:43:14;;;;;;;;;;;24.00;71.30;;;;;;5127094;27;19919;-55
2022/08/13 08:45:55;;;;;;;;;;;23.80;72.30;;;;;;5106580;27;20187;-55
2022/08/13 08:48:36;;;;;;;;;;;23.80;75.20;;;;;;5126891;27;19915;-55
2022/08/13 08:51:19;;;;;;;;;;;23.80;75.00;;;;;;5113362;27;20323;-56
2022/08/13 08:53:59;;;;;;;;;;;24.00;75.20;;;;;;5127020;27;19911;-55
2022/08/13 08:56:41;;;;;;;;;;;23.90;71.80;;;;;;5126324;27;19925;-55
2022/08/13 08:59:23;;;;;;;;;;;23.70;72.40;;;;;;5123662;27;19918;-56
2022/08/13 09:02:17;;;;;;;;;;;23.70;72.90;;;;;;5111314;27;19969;-56
2022/08/13 09:04:58;;;;;;;;;;;23.70;74.10;;;;;;5126178;27;19915;-56
2022/08/13 09:07:37;;;;;;;;;;;24.00;70.80;;;;;;5137094;27;19912;-55
2022/08/13 09:10:18;;;;;;;;;;;24.00;68.40;;;;;;5126803;27;19918;-55
2022/08/13 09:13:02;;;;;;;;;;;24.20;69.70;;;;;;5126944;27;19926;-55
2022/08/13 09:15:42;;;;;;;;;;;24.20;65.30;;;;;;5127240;27;20176;-56
2022/08/13 09:18:22;;;;;;;;;;;24.20;65.50;;;;;;5126898;27;19911;-55
2022/08/13 09:21:01;;;;;;;;;;;24.20;63.90;;;;;;5126654;27;19911;-55
2022/08/13 09:23:46;;;;;;;;;;;24.20;63.00;;;;;;5126947;27;19912;-55
2022/08/13 09:26:26;;;;;;;;;;;24.30;63.10;;;;;;5127142;27;20316;-55
2022/08/13 09:29:06;;;;;;;;;;;24.40;61.40;;;;;;5127006;27;19912;-56
2022/08/13 09:31:46;;;;;;;;;;;24.50;60.90;;;;;;5109332;27;19920;-56
2022/08/13 09:34:25;;;;;;;;;;;24.70;61.50;;;;;;5126977;27;19912;-55
2022/08/13 09:37:07;;;;;;;;;;;24.80;58.90;;;;;;5127190;27;19916;-55
2022/08/13 09:39:51;;;;;;;;;;;25.00;59.10;;;;;;5127077;27;19912;-56
2022/08/13 09:42:33;;;;;;;;;;;25.30;57.50;;;;;;5127073;27;19918;-56
2022/08/13 09:45:14;;;;;;;;;;;25.40;54.70;;;;;;5127532;27;19918;-56
2022/08/13 09:47:54;;;;;;;;;;;25.40;55.50;;;;;;5127278;27;19918;-55
2022/08/13 09:50:36;;;;;;;;;;;25.60;55.00;;;;;;5108128;27;19916;-56
2022/08/13 09:53:15;;;;;;;;;;;25.90;55.40;;;;;;5159905;27;19911;-55
2022/08/13 09:55:55;;;;;;;;;;;26.10;53.70;;;;;;5127426;27;19911;-56
2022/08/13 09:58:36;;;;;;;;;;;26.30;52.50;;;;;;5126737;27;20386;-56
2022/08/13 10:01:16;;;;;;;;;;;26.50;48.20;;;;;;5113826;27;19926;-58
2022/08/13 10:03:56;;;;;;;;;;;27.10;47.00;;;;;;5126770;27;19918;-55
2022/08/13 10:06:38;;;;;;;;;;;27.70;44.40;;;;;;5106871;27;19922;-55
2022/08/13 10:09:19;;;;;;;;;;;28.10;44.30;;;;;;5127297;27;19911;-55
2022/08/13 10:11:59;;;;;;;;;;;28.30;43.70;;;;;;5126997;27;19911;-56
2022/08/13 10:14:40;;;;;;;;;;;27.90;43.90;;;;;;5147696;27;19922;-57
2022/08/13 10:17:20;;;;;;;;;;;27.40;44.40;;;;;;5127467;27;19911;-56
2022/08/13 10:20:00;;;;;;;;;;;27.00;45.40;;;;;;5083045;28;19912;-56
2022/08/13 10:22:40;;;;;;;;;;;26.80;46.10;;;;;;5127307;27;19912;-55
2022/08/13 10:25:20;;;;;;;;;;;26.50;45.50;;;;;;5126971;27;20265;-56
2022/08/13 10:27:59;;;;;;;;;;;26.10;46.20;;;;;;5106376;27;19926;-56
2022/08/13 10:30:43;;;;;;;;;;;26.00;46.80;;;;;;5118182;27;19912;-55
2022/08/13 10:33:24;;;;;;;;;;;26.50;45.90;;;;;;5126888;27;19925;-55
2022/08/13 10:36:05;;;;;;;;;;;27.20;44.60;;;;;;5106898;27;20332;-55
2022/08/13 10:38:45;;;;;;;;;;;27.80;41.20;;;;;;5127150;27;19918;-56
2022/08/13 10:41:27;;;;;;;;;;;28.20;40.20;;;;;;5112076;27;19916;-55
2022/08/13 10:44:08;;;;;;;;;;;28.30;38.90;;;;;;5127181;27;19912;-55
2022/08/13 10:46:48;;;;;;;;;;;28.30;38.50;;;;;;5126497;27;19918;-55
2022/08/13 10:49:29;;;;;;;;;;;28.50;37.50;;;;;;5142585;27;19916;-56
2022/08/13 10:52:09;;;;;;;;;;;29.00;38.70;;;;;;5168570;27;19934;-55
2022/08/13 10:54:49;;;;;;;;;;;29.30;36.30;;;;;;5106197;27;19912;-56
2022/08/13 10:57:29;;;;;;;;;;;29.50;35.30;;;;;;5127139;27;19918;-57
2022/08/13 11:00:10;;;;;;;;;;;29.50;36.00;;;;;;5127335;27;19918;-55
2022/08/13 11:02:51;;;;;;;;;;;29.40;36.50;;;;;;5127078;27;19927;-55
2022/08/13 11:05:31;;;;;;;;;;;28.80;37.00;;;;;;5126760;27;20300;-55
2022/08/13 11:08:14;;;;;;;;;;;28.20;37.80;;;;;;5127293;27;19912;-56
2022/08/13 11:10:54;;;;;;;;;;;28.20;38.20;;;;;;5095733;27;20404;-56
2022/08/13 11:13:36;;;;;;;;;;;28.60;37.80;;;;;;5126693;27;19916;-55
2022/08/13 11:19:15;;;;;;;;;;;29.20;36.50;;;;;;5126917;27;19941;-55
2022/08/13 11:21:54;;;;;;;;;;;29.30;35.90;;;;;;5147480;27;19921;-55
2022/08/13 11:24:34;;;;;;;;;;;29.30;35.80;;;;;;5127254;27;19912;-55
2022/08/13 11:27:14;;;;;;;;;;;29.30;35.40;;;;;;5168502;27;19911;-56
2022/08/13 11:29:54;;;;;;;;;;;29.30;35.40;;;;;;5126512;27;20412;-55
2022/08/13 11:32:34;;;;;;;;;;;29.30;35.60;;;;;;5126638;27;19925;-56
2022/08/13 11:35:13;;;;;;;;;;;29.50;35.20;;;;;;5127280;27;19918;-55
2022/08/13 11:37:53;;;;;;;;;;;29.80;34.00;;;;;;5127023;27;19920;-55
2022/08/13 11:40:34;;;;;;;;;;;30.00;34.70;;;;;;5118834;27;20400;-55
2022/08/13 11:43:14;;;;;;;;;;;29.90;34.10;;;;;;5127161;27;19918;-55
2022/08/13 11:45:56;;;;;;;;;;;29.40;34.50;;;;;;5126843;27;19925;-56
2022/08/13 11:48:38;;;;;;;;;;;28.90;35.20;;;;;;5126905;27;20286;-55
2022/08/13 11:51:19;;;;;;;;;;;28.40;36.20;;;;;;5122167;27;20384;-55
2022/08/13 11:53:59;;;;;;;;;;;28.30;36.80;;;;;;5092144;27;19912;-55
2022/08/13 11:56:38;;;;;;;;;;;28.20;37.30;;;;;;5123215;27;19912;-56
2022/08/13 11:59:18;;;;;;;;;;;28.10;37.40;;;;;;5126106;27;19912;-55
2022/08/13 12:01:58;;;;;;;;;;;28.20;37.80;;;;;;5153276;27;20322;-55
2022/08/13 12:04:38;;;;;;;;;;;28.30;37.30;;;;;;5126466;27;19976;-55
2022/08/13 12:07:18;;;;;;;;;;;28.20;37.50;;;;;;5106476;27;19927;-55
2022/08/13 12:09:59;;;;;;;;;;;28.30;37.60;;;;;;5083034;28;19920;-55
2022/08/13 12:12:39;;;;;;;;;;;28.50;37.30;;;;;;5126768;27;19918;-54
2022/08/13 12:15:19;;;;;;;;;;;28.40;37.00;;;;;;5126491;27;20471;-56
2022/08/13 12:17:59;;;;;;;;;;;28.30;37.30;;;;;;5106265;27;19912;-55
2022/08/13 12:20:39;;;;;;;;;;;28.30;37.40;;;;;;5118433;27;19912;-54
2022/08/13 12:23:18;;;;;;;;;;;28.30;38.00;;;;;;5127103;27;19918;-55
2022/08/13 12:25:58;;;;;;;;;;;29.00;37.80;;;;;;5127136;27;20107;-54
2022/08/13 12:28:38;;;;;;;;;;;29.60;35.70;;;;;;5126817;27;19923;-57
2022/08/13 12:31:18;;;;;;;;;;;29.80;35.90;;;;;;5113408;27;20361;-56
2022/08/13 12:33:59;;;;;;;;;;;29.90;35.60;;;;;;5127245;27;19916;-54
2022/08/13 12:36:39;;;;;;;;;;;29.70;35.50;;;;;;5106581;27;19953;-57
2022/08/13 12:39:19;;;;;;;;;;;29.30;36.20;;;;;;5126914;27;19919;-58
2022/08/13 12:41:59;;;;;;;;;;;29.10;36.60;;;;;;5167270;27;19911;-59
2022/08/13 12:44:38;;;;;;;;;;;29.40;36.70;;;;;;5106387;27;19926;-57
2022/08/13 12:47:18;;;;;;;;;;;29.10;35.80;;;;;;5147841;27;19915;-57
2022/08/13 12:49:58;;;;;;;;;;;29.10;36.20;;;;;;5125312;27;19953;-55
2022/08/13 12:52:38;;;;;;;;;;;29.30;35.70;;;;;;5106108;27;19946;-56
2022/08/13 12:55:18;;;;;;;;;;;29.20;36.80;;;;;;5106506;27;20418;-55
2022/08/13 12:57:59;;;;;;;;;;;28.90;36.60;;;;;;5127200;27;20418;-55
2022/08/13 13:00:39;;;;;;;;;;;28.80;37.10;;;;;;5118417;27;19912;-55
2022/08/13 13:03:19;;;;;;;;;;;29.00;37.20;;;;;;5127365;27;19918;-61
2022/08/13 13:05:59;;;;;;;;;;;29.00;37.10;;;;;;5106467;27;19912;-57
2022/08/13 13:08:40;;;;;;;;;;;28.60;37.30;;;;;;5126747;27;19918;-56
2022/08/13 13:11:20;;;;;;;;;;;28.50;37.30;;;;;;5113407;27;19912;-55
2022/08/13 13:14:00;;;;;;;;;;;28.90;37.20;;;;;;5127250;27;20296;-56
2022/08/13 13:16:40;;;;;;;;;;;29.50;36.40;;;;;;5127111;27;20330;-57
2022/08/13 13:19:20;;;;;;;;;;;29.10;36.40;;;;;;5106655;27;19912;-55
2022/08/13 13:22:02;;;;;;;;;;;29.10;37.00;;;;;;5127464;27;19965;-56
2022/08/13 13:24:42;;;;;;;;;;;29.50;36.80;;;;;;5127095;27;19918;-55
2022/08/13 13:27:22;;;;;;;;;;;30.10;35.80;;;;;;5086832;28;19912;-55
2022/08/13 13:30:02;;;;;;;;;;;30.90;34.40;;;;;;5126564;27;19949;-55
2022/08/13 13:32:43;;;;;;;;;;;31.30;34.40;;;;;;5127126;27;19942;-55
2022/08/13 13:35:23;;;;;;;;;;;31.40;33.90;;;;;;5148534;27;19911;-55
2022/08/13 13:38:03;;;;;;;;;;;31.00;34.80;;;;;;5127418;27;19918;-55
2022/08/13 13:40:44;;;;;;;;;;;30.70;34.60;;;;;;5126593;27;19915;-57
2022/08/13 13:43:25;;;;;;;;;;;30.30;35.00;;;;;;5106663;27;19912;-56
2022/08/13 13:46:06;;;;;;;;;;;30.20;35.30;;;;;;5106873;27;20431;-55
2022/08/13 13:48:46;;;;;;;;;;;30.30;35.10;;;;;;5126852;27;20400;-58
2022/08/13 13:51:25;;;;;;;;;;;30.30;35.90;;;;;;5112257;27;19919;-56
2022/08/13 13:54:05;;;;;;;;;;;30.00;36.20;;;;;;5126955;27;19912;-55
2022/08/13 13:56:45;;;;;;;;;;;30.00;36.20;;;;;;5106053;27;21121;-58
2022/08/13 13:59:25;;;;;;;;;;;30.00;36.20;;;;;;5126957;27;19915;-56
2022/08/13 14:02:05;;;;;;;;;;;30.10;35.30;;;;;;5106588;27;20304;-55
2022/08/13 14:04:45;;;;;;;;;;;30.20;35.50;;;;;;5126930;27;20438;-55
2022/08/13 14:07:26;;;;;;;;;;;30.30;35.10;;;;;;5126825;27;19915;-55
2022/08/13 14:10:07;;;;;;;;;;;30.40;35.80;;;;;;5122894;27;19916;-56
2022/08/13 14:12:48;;;;;;;;;;;30.50;35.80;;;;;;5126958;27;19926;-57
2022/08/13 14:15:30;;;;;;;;;;;30.50;36.00;;;;;;5126697;27;19911;-55
2022/08/13 14:18:15;;;;;;;;;;;30.50;36.00;;;;;;5127098;27;19919;-55
2022/08/13 14:20:56;;;;;;;;;;;30.50;34.80;;;;;;5147159;27;19911;-55
2022/08/13 14:23:37;;;;;;;;;;;30.20;36.40;;;;;;5107752;27;19916;-55
2022/08/13 14:26:20;;;;;;;;;;;30.00;36.90;;;;;;5106483;27;20347;-55
2022/08/13 14:29:01;;;;;;;;;;;29.80;36.60;;;;;;5126460;27;19912;-55
2022/08/13 14:31:43;;;;;;;;;;;29.60;36.60;;;;;;5109675;27;19912;-57
2022/08/13 14:34:24;;;;;;;;;;;29.10;37.90;;;;;;5127258;27;19916;-55
2022/08/13 14:37:03;;;;;;;;;;;28.90;38.20;;;;;;5107051;27;19926;-56
2022/08/13 14:39:43;;;;;;;;;;;28.80;38.70;;;;;;5126823;27;19918;-54
2022/08/13 14:42:26;;;;;;;;;;;28.80;38.60;;;;;;5126808;27;19912;-56
2022/08/13 14:48:06;;;;;;;;;;;28.60;39.10;;;;;;5126952;27;19912;-57
2022/08/13 14:50:48;;;;;;;;;;;28.40;39.70;;;;;;5126339;27;19912;-55
2022/08/13 14:53:28;;;;;;;;;;;28.20;40.00;;;;;;5126742;27;20304;-56
2022/08/13 14:56:08;;;;;;;;;;;28.10;40.10;;;;;;5147412;27;19911;-55
2022/08/13 14:58:51;;;;;;;;;;;28.00;40.50;;;;;;5105975;27;20324;-56
2022/08/13 15:01:33;;;;;;;;;;;27.90;42.20;;;;;;5091042;27;20332;-56
2022/08/13 15:04:14;;;;;;;;;;;27.50;43.30;;;;;;5126613;27;20384;-56
2022/08/13 15:06:55;;;;;;;;;;;27.40;43.70;;;;;;5106384;27;19918;-55
2022/08/13 15:09:35;;;;;;;;;;;27.40;43.70;;;;;;5147261;27;19915;-55
2022/08/13 15:12:16;;;;;;;;;;;27.70;43.20;;;;;;5127103;27;20377;-55
2022/08/13 15:14:58;;;;;;;;;;;27.90;42.40;;;;;;5127269;27;19918;-56
2022/08/13 15:18:03;;;;;;;;;;;28.20;42.60;;;;;;5128266;27;20006;-56
2022/08/13 15:20:57;;;;;;;;;;;28.50;41.90;;;;;;5076499;27;19985;-55
2022/08/13 15:23:55;;;;;;;;;;;28.30;42.10;;;;;;5137743;27;19959;-56
2022/08/13 15:26:49;;;;;;;;;;;27.90;42.50;;;;;;5128826;27;19916;-56
2022/08/13 15:29:44;;;;;;;;;;;27.50;43.30;;;;;;5128906;27;19916;-55
2022/08/13 15:32:40;;;;;;;;;;;27.40;44.00;;;;;;5129187;27;20003;-56
2022/08/13 15:35:39;;;;;;;;;;;27.70;44.50;;;;;;5135765;27;19916;-56
2022/08/13 15:38:40;;;;;;;;;;;28.00;42.80;;;;;;5130453;27;19920;-56
2022/08/13 15:41:35;;;;;;;;;;;27.80;43.50;;;;;;5105355;27;20011;-56
2022/08/13 15:44:29;;;;;;;;;;;27.70;43.90;;;;;;5147775;27;20343;-54
2022/08/13 15:47:24;;;;;;;;;;;27.70;43.70;;;;;;5138250;27;20010;-55
2022/08/13 15:50:17;;;;;;;;;;;27.90;43.30;;;;;;5132644;27;19976;-56
2022/08/13 15:53:12;;;;;;;;;;;28.10;43.10;;;;;;5127900;27;19916;-55
2022/08/13 15:56:06;;;;;;;;;;;28.80;42.80;;;;;;5137675;27;19999;-58
2022/08/13 15:59:03;;;;;;;;;;;29.60;41.50;;;;;;5135678;27;20302;-56
2022/08/13 16:01:59;;;;;;;;;;;29.70;41.20;;;;;;5118567;27;20442;-55
2022/08/13 16:04:57;;;;;;;;;;;29.50;42.00;;;;;;5127302;27;19916;-56